createdAt,value
2022-10-31T00:01:25.060Z,30.33
2022-10-31T00:03:52.616Z,24.60
2022-10-31T00:06:20.351Z,27.30
2022-10-31T00:08:53.854Z,27.07
2022-10-31T00:11:21.331Z,21.67
2022-10-31T00:13:48.771Z,26.23
2022-10-31T00:16:17.267Z,27.57
2022-10-31T00:18:44.783Z,27.97
2022-10-31T00:21:12.316Z,23.63
2022-10-31T00:23:39.734Z,23.40
2022-10-31T00:26:08.598Z,23.13
2022-10-31T00:28:36.164Z,23.93
2022-10-31T00:31:05.245Z,27.23
2022-10-31T00:33:35.668Z,23.67
2022-10-31T00:36:03.571Z,22.03
2022-10-31T00:38:32.019Z,26.53
2022-10-31T00:41:01.400Z,24.13
2022-10-31T00:43:30.413Z,27.57
2022-10-31T00:45:58.084Z,22.90
2022-10-31T00:48:26.057Z,27.47
2022-10-31T00:50:55.956Z,28.17
2022-10-31T00:53:24.747Z,24.53
2022-10-31T00:55:54.292Z,25.33
2022-10-31T00:58:22.194Z,27.33
2022-10-31T01:00:57.008Z,24.93
2022-10-31T01:03:27.646Z,29.53
2022-10-31T01:06:03.041Z,23.63
2022-10-31T01:08:33.655Z,25.53
2022-10-31T01:11:09.114Z,21.47
2022-10-31T01:13:37.836Z,25.73
2022-10-31T01:16:10.413Z,25.97
2022-10-31T01:18:38.394Z,29.47
2022-10-31T01:21:09.187Z,20.80
2022-10-31T01:23:37.801Z,22.57
2022-10-31T01:26:09.029Z,21.37
2022-10-31T01:28:37.937Z,21.03
2022-10-31T01:31:11.677Z,20.17
2022-10-31T01:33:39.861Z,20.20
2022-10-31T01:36:17.057Z,23.27
2022-10-31T01:38:44.717Z,23.47
2022-10-31T01:41:14.292Z,24.30
2022-10-31T01:43:50.665Z,25.17
2022-10-31T01:46:24.010Z,23.87
2022-10-31T01:48:52.647Z,18.50
2022-10-31T01:51:22.535Z,20.33
2022-10-31T01:53:54.860Z,22.20
2022-10-31T01:56:22.844Z,20.17
2022-10-31T01:58:51.536Z,22.20
2022-10-31T02:01:20.671Z,20.03
2022-10-31T02:03:50.531Z,19.70
2022-10-31T02:06:29.387Z,17.63
2022-10-31T02:09:02.541Z,23.77
2022-10-31T02:11:31.353Z,21.87
2022-10-31T02:14:01.877Z,19.57
2022-10-31T02:16:31.042Z,18.43
2022-10-31T02:18:59.188Z,20.17
2022-10-31T02:21:36.082Z,21.60
2022-10-31T02:24:34.685Z,20.47
2022-10-31T02:27:13.129Z,22.87
2022-10-31T02:30:05.882Z,24.33
2022-10-31T02:32:45.268Z,22.23
2022-10-31T02:35:21.112Z,20.47
2022-10-31T02:37:58.085Z,21.40
2022-10-31T02:40:29.222Z,21.60
2022-10-31T02:43:28.906Z,20.80
2022-10-31T02:46:31.058Z,20.00
2022-10-31T02:49:06.916Z,17.13
2022-10-31T02:51:34.800Z,18.80
2022-10-31T02:54:02.424Z,21.17
2022-10-31T02:56:30.040Z,24.83
2022-10-31T02:59:03.751Z,17.23
2022-10-31T03:01:44.808Z,19.73
2022-10-31T03:04:31.171Z,21.47
2022-10-31T03:07:03.164Z,18.03
2022-10-31T03:09:40.116Z,16.07
2022-10-31T03:12:13.584Z,16.87
2022-10-31T03:14:45.033Z,19.77
2022-10-31T03:17:20.280Z,17.53
2022-10-31T03:19:54.233Z,20.63
2022-10-31T03:22:25.249Z,19.37
2022-10-31T03:24:54.675Z,23.47
2022-10-31T03:27:27.686Z,19.33
2022-10-31T03:29:58.164Z,20.83
2022-10-31T03:32:31.193Z,18.43
2022-10-31T03:35:02.798Z,17.37
2022-10-31T03:37:34.587Z,21.37
2022-10-31T03:40:05.424Z,17.77
2022-10-31T03:42:39.410Z,21.60
2022-10-31T03:45:12.288Z,17.77
2022-10-31T03:47:43.686Z,18.80
2022-10-31T03:50:16.339Z,18.30
2022-10-31T03:52:49.232Z,17.10
2022-10-31T03:55:20.165Z,17.57
2022-10-31T03:57:54.970Z,15.70
2022-10-31T04:00:27.172Z,18.80
2022-10-31T04:02:59.964Z,15.33
2022-10-31T04:05:33.243Z,14.43
2022-10-31T04:08:06.638Z,17.83
2022-10-31T04:10:36.135Z,14.10
2022-10-31T04:13:09.222Z,16.13
2022-10-31T04:15:46.652Z,13.53
2022-10-31T04:18:14.388Z,14.87
2022-10-31T04:20:43.913Z,16.30
2022-10-31T04:23:20.792Z,13.60
2022-10-31T04:25:49.353Z,16.80
2022-10-31T04:30:46.866Z,16.40
2022-10-31T04:33:15.312Z,14.97
2022-10-31T04:35:47.471Z,15.90
2022-10-31T04:38:15.020Z,14.30
2022-10-31T04:40:44.347Z,13.47
2022-10-31T04:43:30.340Z,15.47
2022-10-31T04:46:00.549Z,17.47
2022-10-31T04:48:28.161Z,15.77
2022-10-31T04:51:01.670Z,13.97
2022-10-31T04:53:29.305Z,16.60
2022-10-31T04:56:19.965Z,14.20
2022-10-31T04:58:52.323Z,15.50
2022-10-31T05:01:20.794Z,13.53
2022-10-31T05:03:50.223Z,17.30
2022-10-31T05:06:21.884Z,14.60
2022-10-31T05:08:49.428Z,16.33
2022-10-31T05:11:16.984Z,16.43
2022-10-31T05:13:45.682Z,14.80
2022-10-31T05:16:13.247Z,13.93
2022-10-31T05:18:49.849Z,13.40
2022-10-31T05:21:37.574Z,15.27
2022-10-31T05:24:08.518Z,16.47
2022-10-31T05:26:36.797Z,15.30
2022-10-31T05:29:04.355Z,15.87
2022-10-31T05:31:32.032Z,16.17
2022-10-31T05:33:59.976Z,16.07
2022-10-31T05:36:47.317Z,14.07
2022-10-31T05:39:19.115Z,15.83
2022-10-31T05:41:54.801Z,15.43
2022-10-31T05:44:27.045Z,19.53
2022-10-31T05:47:17.908Z,13.23
2022-10-31T05:50:04.484Z,15.00
2022-10-31T05:52:57.286Z,14.13
2022-10-31T05:55:35.490Z,13.00
2022-10-31T05:58:05.916Z,16.47
2022-10-31T06:00:36.255Z,17.60
2022-10-31T06:05:52.255Z,17.13
2022-10-31T06:08:25.644Z,14.67
2022-10-31T06:10:54.749Z,12.30
2022-10-31T06:13:32.269Z,14.80
2022-10-31T06:16:06.984Z,13.07
2022-10-31T06:18:38.001Z,13.40
2022-10-31T06:21:05.766Z,15.10
2022-10-31T06:23:38.353Z,16.00
2022-10-31T06:26:24.479Z,13.20
2022-10-31T06:28:52.219Z,13.57
2022-10-31T06:31:39.720Z,14.53
2022-10-31T06:34:08.591Z,12.57
2022-10-31T06:36:36.803Z,13.10
2022-10-31T06:39:06.720Z,13.90
2022-10-31T06:41:34.355Z,16.10
2022-10-31T06:44:04.996Z,13.73
2022-10-31T06:46:54.113Z,12.57
2022-10-31T06:49:51.194Z,12.73
2022-10-31T06:52:24.314Z,18.53
2022-10-31T06:54:53.683Z,14.47
2022-10-31T06:57:22.384Z,17.53
2022-10-31T06:59:50.569Z,13.27
2022-10-31T07:02:41.379Z,14.93
2022-10-31T07:05:09.085Z,21.50
2022-10-31T07:07:36.560Z,14.63
2022-10-31T07:10:06.307Z,20.73
2022-10-31T07:12:57.138Z,19.00
2022-10-31T07:15:25.335Z,13.60
2022-10-31T07:17:57.104Z,16.77
2022-10-31T07:20:27.049Z,13.00
2022-10-31T07:22:55.298Z,16.33
2022-10-31T07:25:26.249Z,19.20
2022-10-31T07:28:20.088Z,17.33
2022-10-31T07:30:53.014Z,19.10
2022-10-31T07:33:22.698Z,21.50
2022-10-31T07:36:28.437Z,17.43
2022-10-31T07:39:00.819Z,16.83
2022-10-31T07:41:29.806Z,14.57
2022-10-31T07:43:57.472Z,21.30
2022-10-31T07:46:48.231Z,15.73
2022-10-31T07:49:35.006Z,17.50
2022-10-31T07:52:21.191Z,15.70
2022-10-31T07:55:07.976Z,22.90
2022-10-31T07:57:38.713Z,21.93
2022-10-31T08:00:09.389Z,18.70
2022-10-31T08:02:42.619Z,16.63
2022-10-31T08:05:42.817Z,16.70
2022-10-31T08:08:38.274Z,16.57
2022-10-31T08:11:07.168Z,18.47
2022-10-31T08:13:36.064Z,16.70
2022-10-31T08:16:05.504Z,14.93
2022-10-31T08:18:38.523Z,17.83
2022-10-31T08:21:08.122Z,16.03
2022-10-31T08:23:38.032Z,17.50
2022-10-31T08:26:09.676Z,27.47
2022-10-31T08:28:38.764Z,15.57
2022-10-31T08:31:06.915Z,19.33
2022-10-31T08:33:40.544Z,15.33
2022-10-31T08:36:34.149Z,18.93
2022-10-31T08:39:30.723Z,19.97
2022-10-31T08:42:01.534Z,22.97
2022-10-31T08:44:31.229Z,19.30
2022-10-31T08:46:58.770Z,28.60
2022-10-31T08:49:28.384Z,26.00
2022-10-31T08:51:56.148Z,18.77
2022-10-31T08:54:24.550Z,20.13
2022-10-31T08:57:00.888Z,18.73
2022-10-31T08:59:49.695Z,24.93
2022-10-31T09:02:30.914Z,24.67
2022-10-31T09:05:00.857Z,22.50
2022-10-31T09:07:29.913Z,24.57
2022-10-31T09:09:57.798Z,20.03
2022-10-31T09:12:28.313Z,24.07
2022-10-31T09:15:03.426Z,21.17
2022-10-31T09:17:57.765Z,25.13
2022-10-31T09:20:31.437Z,23.07
2022-10-31T09:23:00.570Z,26.57
2022-10-31T09:25:30.063Z,20.43
2022-10-31T09:28:19.812Z,22.50
2022-10-31T09:30:50.876Z,25.77
2022-10-31T09:33:27.213Z,33.53
2022-10-31T09:36:14.752Z,31.57
2022-10-31T09:38:42.883Z,26.77
2022-10-31T09:41:26.547Z,28.60
2022-10-31T09:44:07.294Z,26.77
2022-10-31T09:46:45.677Z,26.40
2022-10-31T09:49:35.707Z,27.37
2022-10-31T09:52:07.384Z,28.47
2022-10-31T09:54:41.691Z,25.27
2022-10-31T09:57:14.564Z,27.20
2022-10-31T09:59:50.150Z,27.17
2022-10-31T10:02:25.491Z,23.67
2022-10-31T10:05:01.863Z,22.77
2022-10-31T10:07:40.769Z,23.93
2022-10-31T10:10:34.422Z,23.53
2022-10-31T10:13:53.987Z,20.03
2022-10-31T10:16:35.565Z,20.83
2022-10-31T10:19:19.059Z,23.23
2022-10-31T10:22:00.397Z,22.20
2022-10-31T10:24:53.011Z,25.30
2022-10-31T10:27:30.242Z,24.70
2022-10-31T10:30:07.352Z,25.00
2022-10-31T10:32:47.777Z,23.70
2022-10-31T10:35:26.698Z,23.63
2022-10-31T10:37:59.251Z,22.10
2022-10-31T10:40:29.664Z,20.97
2022-10-31T10:43:22.069Z,21.03
2022-10-31T10:46:13.316Z,21.47
2022-10-31T10:48:52.793Z,28.20
2022-10-31T10:51:54.658Z,22.53
2022-10-31T10:54:48.631Z,24.63
2022-10-31T10:57:47.931Z,24.67
2022-10-31T11:00:20.791Z,26.63
2022-10-31T11:02:49.238Z,26.97
2022-10-31T11:05:24.988Z,22.80
2022-10-31T11:07:53.973Z,22.33
2022-10-31T11:10:22.084Z,23.57
2022-10-31T11:13:03.053Z,25.07
2022-10-31T11:15:34.150Z,26.33
2022-10-31T11:18:01.770Z,25.23
2022-10-31T11:20:35.523Z,24.50
2022-10-31T11:23:07.936Z,20.10
2022-10-31T11:25:35.715Z,20.80
2022-10-31T11:28:05.025Z,24.83
2022-10-31T11:30:40.128Z,24.07
2022-10-31T11:33:19.767Z,23.70
2022-10-31T11:35:50.930Z,26.77
2022-10-31T11:38:25.128Z,25.70
2022-10-31T11:40:58.789Z,22.00
2022-10-31T11:43:28.522Z,24.70
2022-10-31T11:45:56.327Z,21.23
2022-10-31T11:48:26.440Z,21.37
2022-10-31T11:50:58.648Z,20.60
2022-10-31T11:53:31.600Z,21.73
2022-10-31T11:56:06.035Z,22.37
2022-10-31T11:58:34.096Z,27.87
2022-10-31T12:01:01.740Z,21.93
2022-10-31T12:03:40.193Z,17.57
2022-10-31T12:06:13.144Z,21.23
2022-10-31T12:08:43.782Z,28.10
2022-10-31T12:11:25.661Z,21.33
2022-10-31T12:14:06.337Z,23.17
2022-10-31T12:16:40.469Z,18.70
2022-10-31T12:19:20.963Z,20.37
2022-10-31T12:22:14.997Z,20.23
2022-10-31T12:25:02.845Z,21.40
2022-10-31T12:27:54.687Z,21.73
2022-10-31T12:30:25.967Z,20.70
2022-10-31T12:33:17.957Z,23.73
2022-10-31T12:35:52.276Z,19.30
2022-10-31T12:38:39.985Z,21.53
2022-10-31T12:41:30.566Z,22.63
2022-10-31T12:44:05.686Z,24.73
2022-10-31T12:46:56.130Z,24.53
2022-10-31T12:49:40.972Z,21.03
2022-10-31T12:52:23.943Z,26.40
2022-10-31T12:55:05.680Z,19.17
2022-10-31T12:57:41.162Z,22.33
2022-10-31T13:00:16.695Z,22.23
2022-10-31T13:02:50.846Z,20.60
2022-10-31T13:05:23.634Z,23.57
2022-10-31T13:07:56.483Z,26.27
2022-10-31T13:10:28.584Z,35.87
2022-10-31T13:13:04.071Z,20.40
2022-10-31T13:15:48.772Z,22.10
2022-10-31T13:18:26.651Z,22.97
2022-10-31T13:20:56.472Z,24.70
2022-10-31T13:23:49.904Z,22.63
2022-10-31T13:26:24.376Z,26.13
2022-10-31T13:29:01.572Z,21.90
2022-10-31T13:31:29.814Z,32.67
2022-10-31T13:34:03.893Z,24.07
2022-10-31T13:36:36.160Z,21.17
2022-10-31T13:39:16.313Z,26.63
2022-10-31T13:41:50.355Z,23.63
2022-10-31T13:44:22.932Z,19.33
2022-10-31T13:46:50.521Z,29.87
2022-10-31T13:49:28.480Z,23.00
2022-10-31T13:52:14.240Z,25.10
2022-10-31T13:54:43.839Z,23.77
2022-10-31T13:57:19.477Z,31.47
2022-10-31T13:59:54.174Z,29.07
2022-10-31T14:02:27.799Z,21.73
2022-10-31T14:05:00.164Z,23.03
2022-10-31T14:07:30.098Z,26.10
2022-10-31T14:10:01.417Z,25.73
2022-10-31T14:12:33.533Z,28.67
2022-10-31T14:15:07.116Z,23.13
2022-10-31T14:17:46.756Z,25.73
2022-10-31T14:20:34.806Z,28.93
2022-10-31T14:23:15.623Z,29.10
2022-10-31T14:25:43.231Z,24.10
2022-10-31T14:28:33.505Z,23.93
2022-10-31T14:31:03.037Z,24.27
2022-10-31T14:33:32.909Z,29.70
2022-10-31T14:36:05.940Z,19.90
2022-10-31T14:38:48.294Z,26.40
2022-10-31T14:41:33.333Z,25.03
2022-10-31T14:44:24.857Z,23.93
2022-10-31T14:47:04.132Z,25.83
2022-10-31T14:49:46.182Z,24.70
2022-10-31T14:52:18.809Z,24.27
2022-10-31T14:54:52.410Z,23.77
2022-10-31T14:57:24.244Z,20.87
2022-10-31T14:59:59.123Z,36.87
2022-10-31T15:02:37.478Z,25.77
2022-10-31T15:05:09.918Z,25.80
2022-10-31T15:07:40.880Z,25.83
2022-10-31T15:10:22.954Z,20.30
2022-10-31T15:12:50.560Z,25.63
2022-10-31T15:15:22.592Z,26.33
2022-10-31T15:17:55.534Z,26.03
2022-10-31T15:20:27.500Z,28.13
2022-10-31T15:22:57.752Z,26.23
2022-10-31T15:25:35.821Z,28.10
2022-10-31T15:28:14.079Z,23.00
2022-10-31T15:30:41.749Z,26.80
2022-10-31T15:33:22.207Z,24.63
2022-10-31T15:35:57.713Z,22.27
2022-10-31T15:38:26.440Z,23.43
2022-10-31T15:41:01.292Z,31.37
2022-10-31T15:43:31.847Z,27.27
2022-10-31T15:46:01.266Z,27.37
2022-10-31T15:48:32.841Z,29.70
2022-10-31T15:51:01.199Z,27.27
2022-10-31T15:53:33.813Z,26.83
2022-10-31T15:56:04.083Z,21.13
2022-10-31T15:58:43.789Z,28.43
2022-10-31T16:01:23.770Z,26.33
2022-10-31T16:04:05.184Z,23.70
2022-10-31T16:06:34.435Z,21.60
2022-10-31T16:09:02.591Z,25.63
2022-10-31T16:11:35.915Z,26.67
2022-10-31T16:14:07.232Z,23.03
2022-10-31T16:16:42.197Z,28.00
2022-10-31T16:19:20.560Z,27.20
2022-10-31T16:21:50.916Z,27.53
2022-10-31T16:24:24.347Z,25.87
2022-10-31T16:26:54.597Z,26.70
2022-10-31T16:29:30.684Z,24.07
2022-10-31T16:31:58.384Z,30.87
2022-10-31T16:34:27.415Z,32.17
2022-10-31T16:36:55.490Z,25.67
2022-10-31T16:39:23.179Z,29.27
2022-10-31T16:41:53.823Z,32.47
2022-10-31T16:44:24.364Z,31.83
2022-10-31T16:47:10.405Z,31.77
2022-10-31T16:49:39.707Z,30.30
2022-10-31T16:52:07.442Z,29.53
2022-10-31T16:54:35.049Z,33.70
2022-10-31T16:57:04.420Z,35.97
2022-10-31T16:59:33.833Z,32.90
2022-10-31T17:02:03.286Z,31.20
2022-10-31T17:04:31.319Z,29.20
2022-10-31T17:07:00.270Z,30.87
2022-10-31T17:09:27.780Z,30.80
2022-10-31T17:11:56.289Z,28.97
2022-10-31T17:14:24.014Z,25.53
2022-10-31T17:16:51.756Z,27.97
2022-10-31T17:19:20.321Z,30.93
2022-10-31T17:21:47.921Z,30.00
2022-10-31T17:24:17.024Z,34.87
2022-10-31T17:26:44.603Z,24.77
2022-10-31T17:29:12.507Z,23.20
2022-10-31T17:31:40.264Z,31.03
2022-10-31T17:34:08.701Z,25.43
2022-10-31T17:36:36.691Z,26.67
2022-10-31T17:39:07.454Z,31.23
2022-10-31T17:41:36.613Z,33.63
2022-10-31T17:44:04.407Z,41.30
2022-10-31T17:46:32.015Z,41.07
2022-10-31T17:49:00.912Z,34.73
2022-10-31T17:51:31.467Z,29.97
2022-10-31T17:53:59.724Z,35.70
2022-10-31T17:56:27.708Z,40.63
2022-10-31T17:58:58.288Z,42.50
2022-10-31T18:01:26.241Z,43.37
2022-10-31T18:03:54.277Z,41.70
2022-10-31T18:06:21.889Z,44.40
2022-10-31T18:08:49.450Z,35.87
2022-10-31T18:11:20.629Z,39.70
2022-10-31T18:13:48.686Z,36.50
2022-10-31T18:16:19.254Z,43.43
2022-10-31T18:18:51.315Z,45.93
2022-10-31T18:21:18.951Z,49.20
2022-10-31T18:23:46.634Z,38.93
2022-10-31T18:26:14.509Z,43.50
2022-10-31T18:28:42.118Z,40.67
2022-10-31T18:31:09.685Z,44.37
2022-10-31T18:36:18.500Z,46.47
2022-10-31T18:38:46.075Z,45.07
2022-10-31T18:41:14.447Z,56.03
2022-10-31T18:43:42.388Z,47.57
2022-10-31T18:46:13.126Z,43.80
2022-10-31T18:48:43.584Z,47.73
2022-10-31T18:51:14.184Z,47.20
2022-10-31T18:53:41.748Z,47.63
2022-10-31T18:56:10.661Z,52.03
2022-10-31T18:58:38.483Z,40.77
2022-10-31T19:01:09.769Z,43.97
2022-10-31T19:03:38.061Z,48.63
2022-10-31T19:06:07.913Z,43.73
2022-10-31T19:08:36.401Z,47.43
2022-10-31T19:11:06.211Z,46.07
2022-10-31T19:13:34.303Z,47.03
2022-10-31T19:16:06.666Z,48.03
2022-10-31T19:18:56.732Z,50.23
2022-10-31T19:21:44.499Z,51.77
2022-10-31T19:24:33.813Z,52.23
2022-10-31T19:27:08.194Z,55.87
2022-10-31T19:29:45.441Z,52.30
2022-10-31T19:32:23.727Z,52.67
2022-10-31T19:34:56.032Z,54.10
2022-10-31T19:37:33.256Z,52.20
2022-10-31T19:40:20.836Z,55.83
2022-10-31T19:43:12.222Z,56.60
2022-10-31T19:46:13.885Z,54.20
2022-10-31T19:48:57.505Z,55.20
2022-10-31T19:52:01.328Z,58.40
2022-10-31T19:54:26.751Z,56.43
2022-10-31T19:56:56.457Z,55.80
2022-10-31T19:59:27.017Z,62.50
2022-10-31T20:01:59.718Z,54.50
2022-10-31T20:04:40.302Z,54.80
2022-10-31T20:07:08.027Z,59.73
2022-10-31T20:09:39.907Z,49.63
2022-10-31T20:12:10.558Z,52.70
2022-10-31T20:14:38.164Z,56.17
2022-10-31T20:17:05.866Z,53.83
2022-10-31T20:19:34.171Z,50.63
2022-10-31T20:22:02.153Z,52.30
2022-10-31T20:24:33.067Z,60.27
2022-10-31T20:27:04.342Z,51.13
2022-10-31T20:29:32.261Z,51.83
2022-10-31T20:32:00.250Z,59.33
2022-10-31T20:34:28.227Z,59.50
2022-10-31T20:36:56.197Z,57.77
2022-10-31T20:39:24.111Z,48.33
2022-10-31T20:41:52.224Z,59.93
2022-10-31T20:44:21.851Z,51.80
2022-10-31T20:46:49.724Z,49.27
2022-10-31T20:49:17.828Z,55.43
2022-10-31T20:51:45.603Z,45.23
2022-10-31T20:57:50.321Z,52.47
2022-10-31T21:00:19.987Z,49.43
2022-10-31T21:02:50.578Z,48.87
2022-10-31T21:05:18.299Z,48.20
2022-10-31T21:10:23.793Z,46.63
2022-10-31T21:12:56.738Z,46.70
2022-10-31T21:15:26.049Z,49.50
2022-10-31T21:17:55.704Z,44.77
2022-10-31T21:20:23.578Z,46.70
2022-10-31T21:22:54.530Z,42.73
2022-10-31T21:25:22.495Z,45.43
2022-10-31T21:27:51.879Z,43.70
2022-10-31T21:30:22.084Z,40.43
2022-10-31T21:32:56.417Z,43.43
2022-10-31T21:35:24.047Z,45.80
2022-10-31T21:38:05.437Z,47.63
2022-10-31T21:40:33.655Z,45.93
2022-10-31T21:43:01.707Z,45.43
2022-10-31T21:45:29.596Z,40.87
2022-10-31T21:47:58.537Z,34.97
2022-10-31T21:50:26.314Z,34.83
2022-10-31T21:52:55.020Z,38.33
2022-10-31T21:55:22.067Z,34.27
2022-10-31T21:57:55.718Z,39.07
2022-10-31T22:00:29.403Z,39.57
2022-10-31T22:03:06.073Z,33.10
2022-10-31T22:05:34.771Z,38.20
2022-10-31T22:08:03.474Z,34.83
2022-10-31T22:10:32.418Z,36.07
2022-10-31T22:13:01.195Z,35.27
2022-10-31T22:15:28.720Z,33.43
2022-10-31T22:18:03.068Z,32.33
2022-10-31T22:20:32.368Z,36.13
2022-10-31T22:22:59.926Z,36.53
2022-10-31T22:25:32.658Z,36.87
2022-10-31T22:28:01.693Z,31.83
2022-10-31T22:30:30.333Z,35.60
2022-10-31T22:35:46.768Z,31.50
2022-10-31T22:38:17.203Z,28.80
2022-10-31T22:40:44.682Z,28.90
2022-10-31T22:43:14.416Z,33.63
2022-10-31T22:45:42.059Z,30.93
2022-10-31T22:48:09.557Z,33.77
2022-10-31T22:50:37.095Z,35.10
2022-10-31T22:53:07.302Z,34.57
2022-10-31T22:55:35.716Z,35.53
2022-10-31T22:58:03.443Z,35.63
2022-10-31T23:00:31.024Z,38.53
2022-10-31T23:02:59.799Z,39.37
2022-10-31T23:05:27.418Z,34.63
2022-10-31T23:07:54.888Z,37.63
2022-10-31T23:10:33.243Z,38.73
2022-10-31T23:13:18.215Z,35.60
2022-10-31T23:15:45.937Z,36.83
2022-10-31T23:18:19.061Z,39.77
2022-10-31T23:21:00.979Z,35.30
2022-10-31T23:23:29.198Z,40.00
2022-10-31T23:26:15.853Z,36.80
2022-10-31T23:28:43.428Z,32.70
2022-10-31T23:31:10.900Z,44.13
2022-10-31T23:33:38.686Z,36.77
2022-10-31T23:36:06.451Z,43.47
2022-10-31T23:38:33.938Z,33.50
2022-10-31T23:41:05.609Z,36.20
2022-10-31T23:43:33.459Z,40.13
2022-10-31T23:46:00.903Z,34.27
2022-10-31T23:48:28.377Z,39.13
2022-10-31T23:50:55.842Z,33.43
2022-10-31T23:53:23.347Z,30.30
2022-10-31T23:55:50.811Z,35.10
2022-10-31T23:58:19.580Z,37.00
